Time,TemperatureF,DewpointF,PressureIn,WindDirection,WindDirectionDegrees,WindSpeedMPH,WindSpeedGustMPH,Humidity,HourlyPrecipIn,Conditions,Clouds,dailyrainin,SoftwareType,DateUTC
2013-06-18 00:04:00,66.4,45.6,29.88,WSW,249,4.0,6.3,47,0.00,,,-99.99,VWS V12.07,2013-06-18 07:04:00,
2013-06-18 00:09:00,66.2,46.0,29.88,WSW,256,6.3,8.1,48,0.00,,,-99.99,VWS V12.07,2013-06-18 07:09:00,
2013-06-18 00:14:00,66.0,45.8,29.91,SSW,205,5.4,8.3,48,0.00,,,-99.99,VWS V12.07,2013-06-18 07:14:00,
2013-06-18 00:19:00,66.0,45.8,29.91,SW,220,4.0,11.0,48,0.00,,,-99.99,VWS V12.07,2013-06-18 07:19:00,
2013-06-18 00:24:00,66.0,46.3,29.91,SSW,212,5.8,8.3,49,0.00,,,-99.99,VWS V12.07,2013-06-18 07:24:00,
2013-06-18 00:29:00,65.8,46.2,29.91,SSW,206,0.0,8.3,49,0.00,,,-99.99,VWS V12.07,2013-06-18 07:29:00,
2013-06-18 00:34:00,65.3,46.2,29.91,SSW,211,5.8,8.3,50,0.00,,,-99.99,VWS V12.07,2013-06-18 07:34:00,
2013-06-18 00:39:00,64.9,46.4,29.91,SSW,192,3.1,3.1,51,0.00,,,-99.99,VWS V12.07,2013-06-18 07:39:00,
2013-06-18 00:44:00,64.6,46.6,29.88,SSW,197,5.4,5.8,52,0.00,,,-99.99,VWS V12.07,2013-06-18 07:44:00,
2013-06-18 00:49:00,64.2,46.8,29.88,SW,223,5.4,8.7,53,0.00,,,-99.99,VWS V12.07,2013-06-18 07:49:00,
2013-06-18 00:54:00,64.2,47.2,29.88,SW,215,5.4,8.7,54,0.00,,,-99.99,VWS V12.07,2013-06-18 07:54:00,
2013-06-18 00:59:00,64.2,47.2,29.88,SW,215,0.0,8.7,54,0.00,,,-99.99,VWS V12.07,2013-06-18 07:59:00,
2013-06-18 01:04:00,64.2,47.7,29.88,WSW,245,5.4,8.7,55,0.00,,,-99.99,VWS V12.07,2013-06-18 08:04:00,
2013-06-18 01:09:00,64.0,47.6,29.88,WSW,240,0.0,8.7,55,0.00,,,-99.99,VWS V12.07,2013-06-18 08:09:00,
2013-06-18 01:14:00,63.7,47.2,29.88,SW,232,6.3,8.7,55,0.00,,,-99.99,VWS V12.07,2013-06-18 08:14:00,
2013-06-18 01:19:00,63.5,47.5,29.88,SW,233,5.8,5.8,56,0.00,,,-99.99,VWS V12.07,2013-06-18 08:19:00,
2013-06-18 01:24:00,63.5,47.5,29.88,WSW,239,8.1,10.5,56,0.00,,,-99.99,VWS V12.07,2013-06-18 08:24:00,
2013-06-18 01:29:00,63.9,47.9,29.94,WSW,240,15.0,17.0,56,0.00,,,-99.99,VWS V12.07,2013-06-18 08:29:00,
2013-06-18 01:34:00,64.4,47.4,29.94,WSW,252,9.6,26.6,54,0.00,,,-99.99,VWS V12.07,2013-06-18 08:34:00,
2013-06-18 01:39:00,64.6,47.6,29.94,WSW,246,10.1,26.6,54,0.00,,,-99.99,VWS V12.07,2013-06-18 08:39:00,
2013-06-18 01:44:00,63.9,51.9,29.91,NE,40,6.3,11.9,65,0.08,,,-99.99,VWS V12.07,2013-06-18 08:44:00,
2013-06-18 01:49:00,61.0,51.5,29.91,NNW,338,8.3,12.3,71,0.08,,,-99.99,VWS V12.07,2013-06-18 08:49:00,
2013-06-18 01:54:00,59.2,52.0,29.91,North,353,15.0,15.0,77,0.08,,,-99.99,VWS V12.07,2013-06-18 08:54:00,
2013-06-18 01:59:00,58.5,53.0,29.88,NW,326,5.8,5.8,82,0.08,,,-99.99,VWS V12.07,2013-06-18 08:59:00,
2013-06-18 02:04:00,58.1,53.3,29.88,West,270,4.0,7.6,84,0.08,,,-99.99,VWS V12.07,2013-06-18 09:04:00,
2013-06-18 02:09:00,57.9,54.4,29.88,SW,236,5.4,7.6,88,0.08,,,-99.99,VWS V12.07,2013-06-18 09:09:00,
2013-06-18 02:14:00,57.6,54.7,29.91,SSW,199,5.8,7.6,90,0.08,,,-99.99,VWS V12.07,2013-06-18 09:14:00,
2013-06-18 02:19:00,57.6,55.0,29.91,SSW,213,5.8,5.8,91,0.08,,,-99.99,VWS V12.07,2013-06-18 09:19:00,
2013-06-18 02:24:00,57.6,55.3,29.91,SSW,210,4.9,8.1,92,0.08,,,-99.99,VWS V12.07,2013-06-18 09:24:00,
2013-06-18 02:29:00,57.7,55.7,29.91,West,280,6.3,8.1,93,0.08,,,-99.99,VWS V12.07,2013-06-18 09:29:00,
2013-06-18 02:34:00,57.9,55.9,29.91,SW,227,3.1,8.1,93,0.08,,,-99.99,VWS V12.07,2013-06-18 09:34:00,
2013-06-18 02:39:00,57.9,55.9,29.91,SSW,200,6.3,6.3,93,0.08,,,-99.99,VWS V12.07,2013-06-18 09:39:00,
2013-06-18 02:44:00,57.9,55.9,29.91,SW,223,5.8,8.3,93,0.08,,,-99.99,VWS V12.07,2013-06-18 09:44:00,
2013-06-18 02:49:00,58.1,56.1,29.91,SSW,205,10.1,10.1,93,0.08,,,-99.99,VWS V12.07,2013-06-18 09:49:00,
2013-06-18 02:54:00,58.3,56.0,29.91,WSW,248,5.8,10.1,92,0.08,,,-99.99,VWS V12.07,2013-06-18 09:54:00,
2013-06-18 02:59:00,58.3,56.0,29.91,WSW,248,0.0,0.0,92,0.08,,,-99.99,VWS V12.07,2013-06-18 09:59:00,
2013-06-18 03:04:00,58.3,56.0,29.91,West,273,0.0,0.0,92,0.00,,,-99.99,VWS V12.07,2013-06-18 10:04:00,
2013-06-18 03:09:00,58.1,55.8,29.91,West,275,0.0,5.4,92,0.00,,,-99.99,VWS V12.07,2013-06-18 10:09:00,
2013-06-18 03:14:00,58.1,55.8,29.91,West,274,0.0,5.4,92,0.00,,,-99.99,VWS V12.07,2013-06-18 10:14:00,
2013-06-18 03:19:00,58.1,55.8,29.91,North,9,0.0,0.0,92,0.00,,,-99.99,VWS V12.07,2013-06-18 10:19:00,
2013-06-18 03:24:00,57.9,55.6,29.91,WSW,253,0.0,0.0,92,0.00,,,-99.99,VWS V12.07,2013-06-18 10:24:00,
2013-06-18 03:29:00,57.9,55.6,29.91,NNW,339,0.0,0.0,92,0.00,,,-99.99,VWS V12.07,2013-06-18 10:29:00,
2013-06-18 03:34:00,57.9,55.6,29.91,NE,52,0.0,0.0,92,0.00,,,-99.99,VWS V12.07,2013-06-18 10:34:00,
2013-06-18 03:39:00,57.9,55.6,29.91,ENE,70,0.0,0.0,92,0.00,,,-99.99,VWS V12.07,2013-06-18 10:39:00,
2013-06-18 03:44:00,57.9,55.6,29.91,East,86,0.0,0.0,92,0.00,,,-99.99,VWS V12.07,2013-06-18 10:44:00,
2013-06-18 03:49:00,57.9,55.6,29.91,South,174,5.8,6.3,92,0.00,,,-99.99,VWS V12.07,2013-06-18 10:49:00,
2013-06-18 03:54:00,57.9,55.6,29.91,SSW,198,7.6,8.7,92,0.00,,,-99.99,VWS V12.07,2013-06-18 10:54:00,
2013-06-18 03:59:00,57.9,55.9,29.94,SW,223,0.0,8.7,93,0.00,,,-99.99,VWS V12.07,2013-06-18 10:59:00,
2013-06-18 04:04:00,57.7,55.7,29.94,NNW,344,0.0,4.9,93,0.08,,,-99.99,VWS V12.07,2013-06-18 11:04:00,
2013-06-18 04:09:00,57.6,55.6,29.94,SSW,197,0.0,4.9,93,0.08,,,-99.99,VWS V12.07,2013-06-18 11:09:00,
2013-06-18 04:14:00,57.2,55.2,29.91,SSW,195,0.0,4.9,93,0.08,,,-99.99,VWS V12.07,2013-06-18 11:14:00,
2013-06-18 04:19:00,57.2,55.2,29.91,SSW,195,0.0,0.0,93,0.08,,,-99.99,VWS V12.07,2013-06-18 11:19:00,
2013-06-18 04:24:00,57.2,55.2,29.91,SSE,167,0.0,0.0,93,0.08,,,-99.99,VWS V12.07,2013-06-18 11:24:00,
2013-06-18 04:29:00,57.0,55.3,29.94,WSW,254,0.0,0.0,94,0.08,,,-99.99,VWS V12.07,2013-06-18 11:29:00,
2013-06-18 04:34:00,57.0,55.3,29.94,WSW,246,6.3,8.1,94,0.08,,,-99.99,VWS V12.07,2013-06-18 11:34:00,
2013-06-18 04:39:00,57.0,55.9,29.94,WSW,253,8.1,8.1,96,0.08,,,-99.99,VWS V12.07,2013-06-18 11:39:00,
2013-06-18 04:49:00,57.0,56.2,29.94,WNW,286,0.0,8.3,97,0.08,,,-99.99,VWS V12.07,2013-06-18 11:49:00,
2013-06-18 04:54:00,56.8,56.0,29.94,South,191,2.7,8.3,97,0.08,,,-99.99,VWS V12.07,2013-06-18 11:54:00,
2013-06-18 04:59:00,56.8,56.0,29.91,South,183,0.0,0.0,97,0.08,,,-99.99,VWS V12.07,2013-06-18 11:59:00,
2013-06-18 05:04:00,56.8,56.0,29.91,SW,235,6.3,6.3,97,0.08,,,-99.99,VWS V12.07,2013-06-18 12:04:00,
2013-06-18 05:09:00,57.0,56.5,29.91,West,271,4.0,7.6,98,0.08,,,-99.99,VWS V12.07,2013-06-18 12:09:00,
2013-06-18 05:14:00,57.0,56.5,29.94,SSW,196,4.0,7.6,98,0.08,,,-99.99,VWS V12.07,2013-06-18 12:14:00,
2013-06-18 05:19:00,56.8,56.3,29.94,SSW,194,3.6,3.6,98,0.08,,,-99.99,VWS V12.07,2013-06-18 12:19:00,
2013-06-18 05:24:00,56.8,56.3,29.94,SW,216,0.0,5.4,98,0.00,,,-99.99,VWS V12.07,2013-06-18 12:24:00,
2013-06-18 05:29:00,57.0,56.5,29.94,SW,216,0.0,5.4,98,0.00,,,-99.99,VWS V12.07,2013-06-18 12:29:00,
2013-06-18 05:34:00,57.2,56.6,29.94,SSW,204,3.1,5.4,98,0.00,,,-99.99,VWS V12.07,2013-06-18 12:34:00,
2013-06-18 05:39:00,57.4,56.8,29.94,SSW,208,2.2,2.2,98,0.00,,,-99.99,VWS V12.07,2013-06-18 12:39:00,
2013-06-18 05:44:00,57.4,56.8,29.94,WSW,244,0.0,2.2,98,0.00,,,-99.99,VWS V12.07,2013-06-18 12:44:00,
2013-06-18 05:49:00,57.6,57.0,29.94,WSW,253,0.0,2.2,98,0.00,,,-99.99,VWS V12.07,2013-06-18 12:49:00,
2013-06-18 05:54:00,57.6,57.0,29.94,WSW,253,0.0,2.2,98,0.00,,,-99.99,VWS V12.07,2013-06-18 12:54:00,
2013-06-18 05:59:00,57.7,57.2,29.94,West,264,0.0,0.0,98,0.00,,,-99.99,VWS V12.07,2013-06-18 12:59:00,
2013-06-18 06:04:00,57.9,57.4,29.94,West,264,0.0,0.0,98,0.00,,,-99.99,VWS V12.07,2013-06-18 13:04:00,
2013-06-18 06:09:00,57.9,57.4,29.94,West,264,0.0,0.0,98,0.00,,,-99.99,VWS V12.07,2013-06-18 13:09:00,
2013-06-18 06:14:00,57.9,57.4,29.94,West,264,0.0,0.0,98,0.00,,,-99.99,VWS V12.07,2013-06-18 13:14:00,
2013-06-18 06:19:00,57.9,57.4,29.94,WSW,247,0.0,0.0,98,0.00,,,-99.99,VWS V12.07,2013-06-18 13:19:00,
2013-06-18 06:24:00,57.7,57.2,29.94,West,263,0.0,0.0,98,0.00,,,-99.99,VWS V12.07,2013-06-18 13:24:00,
2013-06-18 06:34:00,57.9,57.4,29.94,West,264,0.0,0.0,98,0.00,,,-99.99,VWS V12.07,2013-06-18 13:34:00,
2013-06-18 06:39:00,57.9,57.4,29.94,WSW,242,5.4,5.4,98,0.00,,,-99.99,VWS V12.07,2013-06-18 13:39:00,
2013-06-18 06:44:00,58.1,57.5,29.94,WSW,247,3.6,6.3,98,0.00,,,-99.99,VWS V12.07,2013-06-18 13:44:00,
2013-06-18 06:49:00,58.1,57.5,29.94,SW,223,2.7,6.3,98,0.00,,,-99.99,VWS V12.07,2013-06-18 13:49:00,
2013-06-18 06:54:00,58.1,57.5,29.94,WSW,250,4.0,7.2,98,0.00,,,-99.99,VWS V12.07,2013-06-18 13:54:00,
2013-06-18 06:59:00,58.1,57.5,29.94,SW,234,0.0,7.2,98,0.00,,,-99.99,VWS V12.07,2013-06-18 13:59:00,
2013-06-18 07:04:00,58.1,57.5,29.94,SW,234,0.0,0.0,98,0.00,,,-99.99,VWS V12.07,2013-06-18 14:04:00,
2013-06-18 07:09:00,58.3,57.7,29.94,SW,234,0.0,0.0,98,0.00,,,-99.99,VWS V12.07,2013-06-18 14:09:00,
2013-06-18 07:14:00,58.5,57.9,29.94,SW,234,0.0,0.0,98,0.00,,,-99.99,VWS V12.07,2013-06-18 14:14:00,
2013-06-18 07:19:00,58.5,57.9,29.94,SW,218,4.9,4.9,98,0.00,,,-99.99,VWS V12.07,2013-06-18 14:19:00,
2013-06-18 07:24:00,58.5,57.9,29.94,WSW,241,4.9,5.4,98,0.00,,,-99.99,VWS V12.07,2013-06-18 14:24:00,
2013-06-18 07:29:00,58.3,57.7,29.94,SW,231,0.0,5.4,98,0.00,,,-99.99,VWS V12.07,2013-06-18 14:29:00,
2013-06-18 07:34:00,58.3,57.7,29.94,SW,221,0.0,5.4,98,0.00,,,-99.99,VWS V12.07,2013-06-18 14:34:00,
2013-06-18 07:39:00,58.3,57.7,29.94,SSW,206,3.6,3.6,98,0.00,,,-99.99,VWS V12.07,2013-06-18 14:39:00,
2013-06-18 07:44:00,58.3,57.7,29.94,SSW,200,0.0,4.0,98,0.00,,,-99.99,VWS V12.07,2013-06-18 14:44:00,
2013-06-18 07:49:00,58.5,57.9,29.94,WSW,256,0.0,4.0,98,0.00,,,-99.99,VWS V12.07,2013-06-18 14:49:00,
2013-06-18 07:54:00,58.5,57.9,29.94,WSW,256,0.0,4.0,98,0.00,,,-99.99,VWS V12.07,2013-06-18 14:54:00,
2013-06-18 07:59:00,58.8,58.3,29.97,West,268,0.0,4.0,98,0.00,,,-99.99,VWS V12.07,2013-06-18 14:59:00,
2013-06-18 08:04:00,58.8,58.3,29.97,West,268,0.0,0.0,98,0.00,,,-99.99,VWS V12.07,2013-06-18 15:04:00,
2013-06-18 08:09:00,58.8,58.3,29.97,WNW,283,0.0,0.0,98,0.00,,,-99.99,VWS V12.07,2013-06-18 15:09:00,
2013-06-18 08:14:00,59.0,58.4,29.97,WNW,283,0.0,0.0,98,0.00,,,-99.99,VWS V12.07,2013-06-18 15:14:00,
2013-06-18 08:19:00,59.2,58.6,29.97,WNW,283,0.0,0.0,98,0.00,,,-99.99,VWS V12.07,2013-06-18 15:19:00,
2013-06-18 08:24:00,59.2,58.6,29.97,WNW,283,0.0,0.0,98,0.00,,,-99.99,VWS V12.07,2013-06-18 15:24:00,
2013-06-18 08:29:00,59.2,58.6,29.94,WNW,283,0.0,0.0,98,0.00,,,-99.99,VWS V12.07,2013-06-18 15:29:00,
2013-06-18 08:34:00,59.2,58.6,29.94,SSW,204,0.0,0.0,98,0.00,,,-99.99,VWS V12.07,2013-06-18 15:34:00,
2013-06-18 08:39:00,59.2,58.6,29.94,SW,218,5.8,5.8,98,0.00,,,-99.99,VWS V12.07,2013-06-18 15:39:00,
2013-06-18 08:44:00,59.2,58.6,29.94,WSW,238,0.0,5.8,98,0.00,,,-99.99,VWS V12.07,2013-06-18 15:44:00,
2013-06-18 08:49:00,59.0,58.4,29.94,SSW,200,0.0,6.3,98,0.00,,,-99.99,VWS V12.07,2013-06-18 15:49:00,
2013-06-18 08:54:00,59.0,58.4,29.94,SSW,209,0.0,6.3,98,0.00,,,-99.99,VWS V12.07,2013-06-18 15:54:00,
2013-06-18 08:59:00,59.2,58.6,29.94,SSW,208,0.0,6.3,98,0.00,,,-99.99,VWS V12.07,2013-06-18 15:59:00,
2013-06-18 09:04:00,59.2,58.6,29.94,WSW,255,2.7,5.4,98,0.00,,,-99.99,VWS V12.07,2013-06-18 16:04:00,
2013-06-18 09:09:00,59.4,58.8,29.94,SW,223,5.8,5.8,98,0.00,,,-99.99,VWS V12.07,2013-06-18 16:09:00,
2013-06-18 09:14:00,59.7,58.9,29.94,SSW,211,5.8,6.3,97,0.00,,,-99.99,VWS V12.07,2013-06-18 16:14:00,
2013-06-18 09:19:00,59.9,59.0,29.94,SSW,199,4.0,4.9,97,0.00,,,-99.99,VWS V12.07,2013-06-18 16:19:00,
2013-06-18 09:24:00,60.3,58.8,29.94,South,174,2.7,5.8,95,0.00,,,-99.99,VWS V12.07,2013-06-18 16:24:00,
2013-06-18 09:29:00,60.6,58.6,29.94,SW,222,4.0,6.3,93,0.00,,,-99.99,VWS V12.07,2013-06-18 16:29:00,
2013-06-18 09:34:00,61.5,58.9,29.94,South,172,4.9,7.6,91,0.00,,,-99.99,VWS V12.07,2013-06-18 16:34:00,
2013-06-18 09:39:00,62.2,57.7,29.94,SSW,196,6.3,6.3,85,0.00,,,-99.99,VWS V12.07,2013-06-18 16:39:00,
2013-06-18 09:44:00,63.1,57.9,29.94,SSW,192,0.0,6.3,83,0.00,,,-99.99,VWS V12.07,2013-06-18 16:44:00,
2013-06-18 09:49:00,63.9,57.9,29.94,SSW,206,6.3,6.3,81,0.00,,,-99.99,VWS V12.07,2013-06-18 16:49:00,
2013-06-18 09:54:00,64.6,55.7,29.94,WSW,245,4.0,8.1,73,0.00,,,-99.99,VWS V12.07,2013-06-18 16:54:00,
2013-06-18 09:59:00,64.9,55.7,29.94,West,262,0.0,0.0,72,0.00,,,-99.99,VWS V12.07,2013-06-18 16:59:00,
2013-06-18 10:04:00,65.1,54.7,29.94,SSW,196,3.6,4.0,69,0.00,,,-99.99,VWS V12.07,2013-06-18 17:04:00,
2013-06-18 10:09:00,65.3,55.7,29.94,South,191,0.0,4.0,71,0.00,,,-99.99,VWS V12.07,2013-06-18 17:09:00,
2013-06-18 10:14:00,65.7,55.6,29.91,West,279,0.0,4.0,70,0.00,,,-99.99,VWS V12.07,2013-06-18 17:14:00,
2013-06-18 10:19:00,66.2,55.7,29.91,NNW,336,0.0,0.0,69,0.00,,,-99.99,VWS V12.07,2013-06-18 17:19:00,
2013-06-18 10:24:00,66.9,56.4,29.91,NW,311,0.0,0.0,69,0.00,,,-99.99,VWS V12.07,2013-06-18 17:24:00,
2013-06-18 10:29:00,67.5,55.3,29.91,NW,312,0.0,0.0,65,0.00,,,-99.99,VWS V12.07,2013-06-18 17:29:00,
2013-06-18 10:34:00,67.6,54.2,29.91,West,270,0.0,4.9,62,0.00,,,-99.99,VWS V12.07,2013-06-18 17:34:00,
2013-06-18 10:39:00,67.5,54.0,29.91,South,181,0.0,0.0,62,0.00,,,-99.99,VWS V12.07,2013-06-18 17:39:00,
2013-06-18 10:44:00,67.6,54.2,29.94,ESE,109,0.0,0.0,62,0.00,,,-99.99,VWS V12.07,2013-06-18 17:44:00,
2013-06-18 10:49:00,67.8,54.3,29.94,SW,223,4.9,4.9,62,0.00,,,-99.99,VWS V12.07,2013-06-18 17:49:00,
2013-06-18 10:54:00,68.4,55.3,29.94,SSW,209,6.3,6.3,63,0.00,,,-99.99,VWS V12.07,2013-06-18 17:54:00,
2013-06-18 10:59:00,68.7,52.9,29.91,West,259,0.0,6.3,57,0.00,,,-99.99,VWS V12.07,2013-06-18 17:59:00,
2013-06-18 11:04:00,68.7,52.4,29.91,SSE,158,0.0,0.0,56,0.00,,,-99.99,VWS V12.07,2013-06-18 18:04:00,
2013-06-18 11:09:00,69.1,54.6,29.91,South,189,5.4,5.8,60,0.00,,,-99.99,VWS V12.07,2013-06-18 18:09:00,
2013-06-18 11:14:00,69.3,51.9,29.91,SW,220,6.3,6.3,54,0.00,,,-99.99,VWS V12.07,2013-06-18 18:14:00,
2013-06-18 11:19:00,68.9,52.6,29.91,SSW,198,6.7,6.7,56,0.00,,,-99.99,VWS V12.07,2013-06-18 18:19:00,
2013-06-18 11:24:00,68.7,53.4,29.91,SSE,166,0.0,6.7,58,0.00,,,-99.99,VWS V12.07,2013-06-18 18:24:00,
2013-06-18 11:29:00,68.7,53.4,29.91,WSW,241,8.1,8.1,58,0.00,,,-99.99,VWS V12.07,2013-06-18 18:29:00,
2013-06-18 11:34:00,68.5,53.7,29.91,SW,224,6.3,8.1,59,0.00,,,-99.99,VWS V12.07,2013-06-18 18:34:00,
2013-06-18 11:39:00,68.4,53.0,29.91,SSW,198,4.9,8.1,58,0.00,,,-99.99,VWS V12.07,2013-06-18 18:39:00,
2013-06-18 11:44:00,68.5,53.2,29.91,SSW,212,0.0,5.8,58,0.00,,,-99.99,VWS V12.07,2013-06-18 18:44:00,
2013-06-18 11:49:00,68.5,52.2,29.91,West,269,0.0,5.8,56,0.00,,,-99.99,VWS V12.07,2013-06-18 18:49:00,
2013-06-18 11:54:00,68.4,52.5,29.91,West,260,0.0,5.8,57,0.00,,,-99.99,VWS V12.07,2013-06-18 18:54:00,
2013-06-18 11:59:00,68.5,53.7,29.91,SSW,202,0.0,0.0,59,0.00,,,-99.99,VWS V12.07,2013-06-18 18:59:00,
2013-06-18 12:04:00,68.5,53.7,29.91,WNW,284,6.3,8.3,59,0.00,,,-99.99,VWS V12.07,2013-06-18 19:04:00,
2013-06-18 12:09:00,68.5,53.7,29.91,SSW,199,0.0,8.3,59,0.00,,,-99.99,VWS V12.07,2013-06-18 19:09:00,
2013-06-18 12:14:00,68.4,53.5,29.91,WNW,298,3.1,8.3,59,0.00,,,-99.99,VWS V12.07,2013-06-18 19:14:00,
2013-06-18 12:19:00,68.0,53.6,29.91,SSW,199,0.0,8.3,60,0.00,,,-99.99,VWS V12.07,2013-06-18 19:19:00,
2013-06-18 12:24:00,67.8,53.9,29.91,SW,222,6.3,6.3,61,0.00,,,-99.99,VWS V12.07,2013-06-18 19:24:00,
2013-06-18 12:29:00,67.6,54.2,29.91,SW,228,4.9,7.6,62,0.00,,,-99.99,VWS V12.07,2013-06-18 19:29:00,
2013-06-18 12:34:00,67.6,54.6,29.91,West,263,5.4,8.1,63,0.00,,,-99.99,VWS V12.07,2013-06-18 19:34:00,
2013-06-18 12:39:00,67.6,54.6,29.91,West,262,5.8,5.8,63,0.00,,,-99.99,VWS V12.07,2013-06-18 19:39:00,
2013-06-18 12:44:00,67.5,54.9,29.91,WSW,251,5.8,6.3,64,0.00,,,-99.99,VWS V12.07,2013-06-18 19:44:00,
2013-06-18 12:49:00,67.5,55.3,29.91,West,267,4.9,6.3,65,0.00,,,-99.99,VWS V12.07,2013-06-18 19:49:00,
2013-06-18 12:54:00,67.5,54.9,29.91,WNW,284,2.7,6.3,64,0.00,,,-99.99,VWS V12.07,2013-06-18 19:54:00,
2013-06-18 12:59:00,67.5,54.0,29.91,WSW,245,6.3,6.3,62,0.00,,,-99.99,VWS V12.07,2013-06-18 19:59:00,
2013-06-18 13:04:00,67.5,54.4,29.91,SW,233,6.3,6.3,63,0.00,,,-99.99,VWS V12.07,2013-06-18 20:04:00,
2013-06-18 13:09:00,67.3,54.7,29.91,WSW,253,8.3,8.3,64,0.00,,,-99.99,VWS V12.07,2013-06-18 20:09:00,
2013-06-18 13:14:00,66.9,54.4,29.91,WSW,250,6.3,8.3,64,0.00,,,-99.99,VWS V12.07,2013-06-18 20:14:00,
2013-06-18 13:19:00,66.6,54.4,29.91,West,267,0.0,8.3,65,0.00,,,-99.99,VWS V12.07,2013-06-18 20:19:00,
2013-06-18 13:24:00,66.2,54.5,29.91,West,263,5.8,8.3,66,0.00,,,-99.99,VWS V12.07,2013-06-18 20:24:00,
2013-06-18 13:29:00,65.8,53.8,29.91,West,281,5.8,11.0,65,0.00,,,-99.99,VWS V12.07,2013-06-18 20:29:00,
2013-06-18 13:34:00,65.3,52.8,29.91,WSW,244,5.4,11.0,64,0.00,,,-99.99,VWS V12.07,2013-06-18 20:34:00,
2013-06-18 13:39:00,64.8,52.7,29.91,WNW,287,10.1,10.1,65,0.00,,,-99.99,VWS V12.07,2013-06-18 20:39:00,
2013-06-18 13:44:00,64.6,52.6,29.91,WNW,294,8.3,10.1,65,0.00,,,-99.99,VWS V12.07,2013-06-18 20:44:00,
2013-06-18 13:49:00,64.4,52.4,29.91,West,266,5.8,10.1,65,0.00,,,-99.99,VWS V12.07,2013-06-18 20:49:00,
2013-06-18 13:54:00,64.2,52.2,29.91,West,280,6.3,10.1,65,0.00,,,-99.99,VWS V12.07,2013-06-18 20:54:00,
2013-06-18 13:59:00,64.2,52.6,29.91,West,259,5.8,10.1,66,0.00,,,-99.99,VWS V12.07,2013-06-18 20:59:00,
2013-06-18 14:04:00,64.4,52.4,29.91,West,263,8.3,8.7,65,0.00,,,-99.99,VWS V12.07,2013-06-18 21:04:00,
2013-06-18 14:09:00,64.6,52.1,29.91,West,267,8.3,9.2,64,0.00,,,-99.99,VWS V12.07,2013-06-18 21:09:00,
2013-06-18 14:14:00,64.8,51.9,29.91,WSW,245,8.3,13.2,63,0.00,,,-99.99,VWS V12.07,2013-06-18 21:14:00,
2013-06-18 14:19:00,64.4,51.5,29.91,WSW,247,10.1,10.1,63,0.00,,,-99.99,VWS V12.07,2013-06-18 21:19:00,
2013-06-18 14:24:00,64.4,51.5,29.91,WSW,255,5.8,12.3,63,0.00,,,-99.99,VWS V12.07,2013-06-18 21:24:00,
2013-06-18 14:29:00,64.4,51.5,29.91,SW,224,8.1,14.5,63,0.00,,,-99.99,VWS V12.07,2013-06-18 21:29:00,
2013-06-18 14:34:00,64.8,51.9,29.91,WSW,242,6.3,14.5,63,0.00,,,-99.99,VWS V12.07,2013-06-18 21:34:00,
2013-06-18 14:39:00,65.1,52.7,29.91,WSW,243,8.1,14.5,64,0.00,,,-99.99,VWS V12.07,2013-06-18 21:39:00,
2013-06-18 14:44:00,65.7,52.7,29.91,WSW,248,8.1,8.3,63,0.00,,,-99.99,VWS V12.07,2013-06-18 21:44:00,
2013-06-18 14:49:00,65.8,52.0,29.91,WSW,254,6.3,8.7,61,0.00,,,-99.99,VWS V12.07,2013-06-18 21:49:00,
2013-06-18 14:54:00,65.8,51.1,29.91,WSW,258,7.6,10.1,59,0.00,,,-99.99,VWS V12.07,2013-06-18 21:54:00,
2013-06-18 14:59:00,65.7,51.4,29.91,West,273,8.3,8.3,60,0.00,,,-99.99,VWS V12.07,2013-06-18 21:59:00,
2013-06-18 15:04:00,65.5,50.3,29.91,West,279,6.3,8.3,58,0.00,,,-99.99,VWS V12.07,2013-06-18 22:04:00,
2013-06-18 15:09:00,65.3,51.5,29.91,West,279,6.7,8.3,61,0.00,,,-99.99,VWS V12.07,2013-06-18 22:09:00,
2013-06-18 15:14:00,65.5,50.8,29.91,West,266,5.8,8.3,59,0.00,,,-99.99,VWS V12.07,2013-06-18 22:14:00,
2013-06-18 15:19:00,65.5,50.3,29.91,WSW,254,6.3,8.1,58,0.00,,,-99.99,VWS V12.07,2013-06-18 22:19:00,
2013-06-18 15:24:00,65.5,50.3,29.91,WSW,257,5.4,8.7,58,0.00,,,-99.99,VWS V12.07,2013-06-18 22:24:00,
2013-06-18 15:29:00,65.7,50.5,29.91,WSW,255,5.8,8.7,58,0.00,,,-99.99,VWS V12.07,2013-06-18 22:29:00,
2013-06-18 15:34:00,66.0,50.8,29.91,WSW,256,7.6,8.7,58,0.00,,,-99.99,VWS V12.07,2013-06-18 22:34:00,
2013-06-18 15:39:00,66.0,49.9,29.91,WSW,237,5.4,5.4,56,0.00,,,-99.99,VWS V12.07,2013-06-18 22:39:00,
2013-06-18 15:44:00,66.2,51.0,29.88,SSW,202,7.6,9.6,58,0.00,,,-99.99,VWS V12.07,2013-06-18 22:44:00,
2013-06-18 15:49:00,67.1,51.4,29.88,SW,235,5.8,9.6,57,0.00,,,-99.99,VWS V12.07,2013-06-18 22:49:00,
2013-06-18 15:54:00,67.8,51.6,29.88,SW,231,8.1,10.1,56,0.00,,,-99.99,VWS V12.07,2013-06-18 22:54:00,
2013-06-18 15:59:00,68.4,50.6,29.88,WSW,257,8.1,8.1,53,0.00,,,-99.99,VWS V12.07,2013-06-18 22:59:00,
2013-06-18 16:04:00,68.7,48.8,29.88,WSW,247,7.2,9.6,49,0.00,,,-99.99,VWS V12.07,2013-06-18 23:04:00,
2013-06-18 16:09:00,68.9,50.0,29.88,WNW,299,10.1,10.1,51,0.00,,,-99.99,VWS V12.07,2013-06-18 23:09:00,
2013-06-18 16:14:00,68.9,48.4,29.88,West,275,5.4,11.0,48,0.00,,,-99.99,VWS V12.07,2013-06-18 23:14:00,
2013-06-18 16:19:00,68.5,48.1,29.88,SW,225,10.1,10.1,48,0.00,,,-99.99,VWS V12.07,2013-06-18 23:19:00,
2013-06-18 16:24:00,68.5,49.2,29.88,SW,220,0.0,11.0,50,0.00,,,-99.99,VWS V12.07,2013-06-18 23:24:00,
2013-06-18 16:29:00,68.9,47.3,29.88,WNW,298,8.1,11.0,46,0.00,,,-99.99,VWS V12.07,2013-06-18 23:29:00,
2013-06-18 16:34:00,68.7,47.7,29.88,WNW,301,8.1,11.0,47,0.00,,,-99.99,VWS V12.07,2013-06-18 23:34:00,
2013-06-18 16:39:00,68.5,47.5,29.88,West,261,8.1,11.0,47,0.00,,,-99.99,VWS V12.07,2013-06-18 23:39:00,
2013-06-18 16:44:00,68.5,47.5,29.85,West,261,4.0,8.1,47,0.00,,,-99.99,VWS V12.07,2013-06-18 23:44:00,
2013-06-18 16:49:00,68.2,47.2,29.85,SW,218,7.6,8.1,47,0.00,,,-99.99,VWS V12.07,2013-06-18 23:49:00,
2013-06-18 16:54:00,67.8,46.9,29.85,WSW,250,7.6,8.3,47,0.00,,,-99.99,VWS V12.07,2013-06-18 23:54:00,
2013-06-18 16:59:00,67.5,47.7,29.88,WSW,249,3.6,8.3,49,0.00,,,-99.99,VWS V12.07,2013-06-18 23:59:00,
2013-06-18 17:04:00,67.8,48.0,29.88,West,261,8.3,8.3,49,0.00,,,-99.99,VWS V12.07,2013-06-19 00:04:00,
2013-06-18 17:09:00,68.0,47.0,29.88,WSW,246,5.8,8.3,47,0.00,,,-99.99,VWS V12.07,2013-06-19 00:09:00,
2013-06-18 17:14:00,68.0,46.5,29.85,WSW,247,2.7,8.3,46,0.00,,,-99.99,VWS V12.07,2013-06-19 00:14:00,
2013-06-18 17:19:00,68.2,46.6,29.85,WSW,251,6.3,6.3,46,0.00,,,-99.99,VWS V12.07,2013-06-19 00:19:00,
2013-06-18 17:24:00,68.0,46.5,29.85,WSW,255,5.4,7.6,46,0.00,,,-99.99,VWS V12.07,2013-06-19 00:24:00,
2013-06-18 17:29:00,67.6,46.1,29.85,WSW,247,7.6,8.7,46,0.00,,,-99.99,VWS V12.07,2013-06-19 00:29:00,
2013-06-18 17:34:00,67.3,45.8,29.85,WSW,247,5.4,8.7,46,0.00,,,-99.99,VWS V12.07,2013-06-19 00:34:00,
2013-06-18 17:39:00,67.1,45.7,29.85,WNW,294,6.3,6.3,46,0.00,,,-99.99,VWS V12.07,2013-06-19 00:39:00,
2013-06-18 17:44:00,66.7,44.8,29.85,WSW,254,4.9,7.2,45,0.00,,,-99.99,VWS V12.07,2013-06-19 00:44:00,
2013-06-18 17:49:00,66.7,45.3,29.85,West,278,5.8,7.2,46,0.00,,,-99.99,VWS V12.07,2013-06-19 00:49:00,
2013-06-18 17:54:00,66.6,45.2,29.85,West,265,6.3,7.6,46,0.00,,,-99.99,VWS V12.07,2013-06-19 00:54:00,
2013-06-18 17:59:00,66.6,45.7,29.85,West,264,5.4,8.1,47,0.00,,,-99.99,VWS V12.07,2013-06-19 00:59:00,
2013-06-18 18:04:00,66.4,46.1,29.85,West,268,5.4,6.3,48,0.00,,,-99.99,VWS V12.07,2013-06-19 01:04:00,
2013-06-18 18:09:00,66.2,46.5,29.85,WSW,254,7.6,8.7,49,0.00,,,-99.99,VWS V12.07,2013-06-19 01:09:00,
2013-06-18 18:14:00,66.2,46.0,29.85,WSW,249,0.0,8.7,48,0.00,,,-99.99,VWS V12.07,2013-06-19 01:14:00,
2013-06-18 18:19:00,66.0,46.3,29.85,WSW,252,4.9,4.9,49,0.00,,,-99.99,VWS V12.07,2013-06-19 01:19:00,
2013-06-18 18:24:00,65.8,46.2,29.85,WSW,243,0.0,6.3,49,0.00,,,-99.99,VWS V12.07,2013-06-19 01:24:00,
2013-06-18 18:29:00,65.7,46.5,29.85,WSW,245,4.9,6.3,50,0.00,,,-99.99,VWS V12.07,2013-06-19 01:29:00,
2013-06-18 18:34:00,65.7,46.5,29.85,WSW,251,5.8,6.3,50,0.00,,,-99.99,VWS V12.07,2013-06-19 01:34:00,
2013-06-18 18:39:00,65.5,46.4,29.85,West,273,5.4,5.4,50,0.00,,,-99.99,VWS V12.07,2013-06-19 01:39:00,
2013-06-18 18:44:00,65.5,45.8,29.85,West,261,4.0,6.3,49,0.00,,,-99.99,VWS V12.07,2013-06-19 01:44:00,
2013-06-18 18:49:00,65.3,47.2,29.85,WSW,249,3.1,6.3,52,0.00,,,-99.99,VWS V12.07,2013-06-19 01:49:00,
2013-06-18 18:54:00,65.3,46.7,29.85,WSW,242,0.0,6.3,51,0.00,,,-99.99,VWS V12.07,2013-06-19 01:54:00,
2013-06-18 18:59:00,65.3,47.2,29.85,WSW,247,0.0,6.3,52,0.00,,,-99.99,VWS V12.07,2013-06-19 01:59:00,
2013-06-18 19:04:00,65.3,47.2,29.85,WSW,245,0.0,0.0,52,0.00,,,-99.99,VWS V12.07,2013-06-19 02:04:00,
2013-06-18 19:09:00,65.3,47.2,29.85,WSW,255,0.0,0.0,52,0.00,,,-99.99,VWS V12.07,2013-06-19 02:09:00,
2013-06-18 19:14:00,65.5,46.4,29.85,West,270,5.8,5.8,50,0.00,,,-99.99,VWS V12.07,2013-06-19 02:14:00,
2013-06-18 19:19:00,65.7,46.5,29.85,WSW,238,6.3,8.1,50,0.00,,,-99.99,VWS V12.07,2013-06-19 02:19:00,
2013-06-18 19:24:00,65.5,45.8,29.85,WSW,258,5.4,8.1,49,0.00,,,-99.99,VWS V12.07,2013-06-19 02:24:00,
2013-06-18 19:29:00,65.5,46.4,29.85,West,270,8.1,8.1,50,0.00,,,-99.99,VWS V12.07,2013-06-19 02:29:00,
2013-06-18 19:34:00,65.1,47.1,29.85,SSW,208,6.3,9.6,52,0.00,,,-99.99,VWS V12.07,2013-06-19 02:34:00,
2013-06-18 19:39:00,64.8,47.2,29.85,SW,233,8.3,8.3,53,0.00,,,-99.99,VWS V12.07,2013-06-19 02:39:00,
2013-06-18 19:44:00,64.4,47.9,29.85,WSW,248,5.8,11.0,55,0.00,,,-99.99,VWS V12.07,2013-06-19 02:44:00,
2013-06-18 19:49:00,64.0,48.0,29.85,SW,226,6.7,11.0,56,0.00,,,-99.99,VWS V12.07,2013-06-19 02:49:00,
2013-06-18 19:54:00,63.7,47.7,29.85,WSW,245,0.0,11.0,56,0.00,,,-99.99,VWS V12.07,2013-06-19 02:54:00,
2013-06-18 19:59:00,63.3,47.4,29.85,SW,229,3.1,6.3,56,0.00,,,-99.99,VWS V12.07,2013-06-19 02:59:00,
2013-06-18 20:04:00,63.1,47.2,29.85,WSW,249,8.1,8.7,56,0.00,,,-99.99,VWS V12.07,2013-06-19 03:04:00,
2013-06-18 20:09:00,63.0,47.0,29.85,WSW,250,8.1,8.7,56,0.00,,,-99.99,VWS V12.07,2013-06-19 03:09:00,
2013-06-18 20:14:00,62.8,47.3,29.85,West,259,8.7,8.7,57,0.00,,,-99.99,VWS V12.07,2013-06-19 03:14:00,
2013-06-18 20:19:00,62.6,47.2,29.85,West,271,5.4,8.7,57,0.00,,,-99.99,VWS V12.07,2013-06-19 03:19:00,
2013-06-18 20:24:00,62.4,47.5,29.85,WSW,241,4.9,8.1,58,0.00,,,-99.99,VWS V12.07,2013-06-19 03:24:00,
2013-06-18 20:29:00,62.2,47.8,29.88,WSW,246,4.0,8.1,59,0.00,,,-99.99,VWS V12.07,2013-06-19 03:29:00,
2013-06-18 20:34:00,61.9,47.9,29.88,WSW,238,8.7,8.7,60,0.00,,,-99.99,VWS V12.07,2013-06-19 03:34:00,
2013-06-18 20:39:00,61.7,47.7,29.88,SW,218,5.8,5.8,60,0.00,,,-99.99,VWS V12.07,2013-06-19 03:39:00,
2013-06-18 20:44:00,61.5,47.5,29.88,SW,228,8.7,8.7,60,0.00,,,-99.99,VWS V12.07,2013-06-19 03:44:00,
2013-06-18 20:49:00,61.3,47.8,29.88,SW,222,3.1,8.7,61,0.00,,,-99.99,VWS V12.07,2013-06-19 03:49:00,
2013-06-18 20:54:00,61.2,47.6,29.88,SW,234,5.8,8.7,61,0.00,,,-99.99,VWS V12.07,2013-06-19 03:54:00,
2013-06-18 20:59:00,61.0,47.9,29.88,WSW,237,7.6,8.7,62,0.00,,,-99.99,VWS V12.07,2013-06-19 03:59:00,
2013-06-18 21:04:00,61.0,47.9,29.88,SW,226,4.0,7.6,62,0.00,,,-99.99,VWS V12.07,2013-06-19 04:04:00,
2013-06-18 21:09:00,60.8,47.3,29.88,WSW,240,5.8,8.3,61,0.00,,,-99.99,VWS V12.07,2013-06-19 04:09:00,
2013-06-18 21:14:00,60.6,46.7,29.88,SW,234,4.0,8.3,60,0.00,,,-99.99,VWS V12.07,2013-06-19 04:14:00,
2013-06-18 21:19:00,60.6,47.1,29.88,SW,225,5.4,8.3,61,0.00,,,-99.99,VWS V12.07,2013-06-19 04:19:00,
2013-06-18 21:24:00,60.4,47.8,29.88,SW,222,5.4,8.1,63,0.00,,,-99.99,VWS V12.07,2013-06-19 04:24:00,
2013-06-18 21:29:00,60.4,48.2,29.88,South,190,8.3,8.3,64,0.00,,,-99.99,VWS V12.07,2013-06-19 04:29:00,
2013-06-18 21:34:00,60.4,48.2,29.88,SSW,194,6.3,8.3,64,0.00,,,-99.99,VWS V12.07,2013-06-19 04:34:00,
2013-06-18 21:39:00,60.3,48.0,29.88,SSW,207,0.0,0.0,64,0.00,,,-99.99,VWS V12.07,2013-06-19 04:39:00,
2013-06-18 21:44:00,60.1,48.3,29.88,SSW,211,2.7,6.3,65,0.00,,,-99.99,VWS V12.07,2013-06-19 04:44:00,
2013-06-18 21:49:00,60.1,48.3,29.88,SW,217,0.0,6.3,65,0.00,,,-99.99,VWS V12.07,2013-06-19 04:49:00,
2013-06-18 21:54:00,59.9,48.1,29.88,SW,217,0.0,6.3,65,0.00,,,-99.99,VWS V12.07,2013-06-19 04:54:00,
2013-06-18 21:59:00,59.9,48.5,29.88,SW,217,0.0,0.0,66,0.00,,,-99.99,VWS V12.07,2013-06-19 04:59:00,
2013-06-18 22:04:00,59.7,48.8,29.88,SW,217,0.0,0.0,67,0.00,,,-99.99,VWS V12.07,2013-06-19 05:04:00,
2013-06-18 22:09:00,59.7,48.8,29.88,SW,217,0.0,0.0,67,0.00,,,-99.99,VWS V12.07,2013-06-19 05:09:00,
2013-06-18 22:14:00,59.5,48.6,29.88,SW,217,0.0,0.0,67,0.00,,,-99.99,VWS V12.07,2013-06-19 05:14:00,
2013-06-18 22:19:00,59.4,48.8,29.88,SW,217,0.0,0.0,68,0.00,,,-99.99,VWS V12.07,2013-06-19 05:19:00,
2013-06-18 22:24:00,59.4,49.2,29.88,SW,224,0.0,0.0,69,0.00,,,-99.99,VWS V12.07,2013-06-19 05:24:00,
2013-06-18 22:29:00,59.2,49.0,29.88,WSW,240,0.0,0.0,69,0.00,,,-99.99,VWS V12.07,2013-06-19 05:29:00,
2013-06-18 22:34:00,59.2,49.0,29.88,WSW,240,0.0,0.0,69,0.00,,,-99.99,VWS V12.07,2013-06-19 05:34:00,
2013-06-18 22:39:00,59.2,49.0,29.88,WSW,240,0.0,0.0,69,0.00,,,-99.99,VWS V12.07,2013-06-19 05:39:00,
2013-06-18 22:44:00,59.0,49.2,29.88,WSW,241,0.0,0.0,70,0.00,,,-99.99,VWS V12.07,2013-06-19 05:44:00,
2013-06-18 22:49:00,58.8,49.1,29.88,West,275,0.0,0.0,70,0.00,,,-99.99,VWS V12.07,2013-06-19 05:49:00,
2013-06-18 22:54:00,58.8,49.5,29.88,West,274,0.0,0.0,71,0.00,,,-99.99,VWS V12.07,2013-06-19 05:54:00,
2013-06-18 22:59:00,58.6,49.3,29.85,West,274,0.0,0.0,71,0.00,,,-99.99,VWS V12.07,2013-06-19 05:59:00,
2013-06-18 23:04:00,58.6,49.3,29.85,West,274,0.0,0.0,71,0.00,,,-99.99,VWS V12.07,2013-06-19 06:04:00,
2013-06-18 23:09:00,58.5,49.5,29.85,West,274,0.0,0.0,72,0.00,,,-99.99,VWS V12.07,2013-06-19 06:09:00,
2013-06-18 23:14:00,58.5,49.1,29.85,West,274,0.0,0.0,71,0.00,,,-99.99,VWS V12.07,2013-06-19 06:14:00,
2013-06-18 23:19:00,58.3,48.9,29.85,West,274,0.0,0.0,71,0.00,,,-99.99,VWS V12.07,2013-06-19 06:19:00,
2013-06-18 23:24:00,58.3,48.9,29.85,West,274,0.0,0.0,71,0.00,,,-99.99,VWS V12.07,2013-06-19 06:24:00,
2013-06-18 23:29:00,58.1,48.8,29.85,West,274,0.0,0.0,71,0.00,,,-99.99,VWS V12.07,2013-06-19 06:29:00,
2013-06-18 23:34:00,58.1,48.8,29.85,West,274,0.0,0.0,71,0.00,,,-99.99,VWS V12.07,2013-06-19 06:34:00,
2013-06-18 23:39:00,57.9,48.6,29.85,West,274,0.0,0.0,71,0.00,,,-99.99,VWS V12.07,2013-06-19 06:39:00,
2013-06-18 23:44:00,57.9,48.6,29.85,SW,226,0.0,0.0,71,0.00,,,-99.99,VWS V12.07,2013-06-19 06:44:00,
2013-06-18 23:49:00,57.7,47.7,29.85,West,261,2.7,6.3,69,0.00,,,-99.99,VWS V12.07,2013-06-19 06:49:00,
2013-06-18 23:54:00,57.7,47.7,29.85,SW,228,5.8,7.2,69,0.00,,,-99.99,VWS V12.07,2013-06-19 06:54:00,
2013-06-18 23:59:00,57.7,47.3,29.85,SSW,206,5.4,5.4,68,0.00,,,-99.99,VWS V12.07,2013-06-19 06:59:00,